Time;durP1;ratioP1;P1;durP2;ratioP2;P2;SDS_P1;SDS_P2;PMS_P1;PMS_P2;Temp;Humidity;BMP_temperature;BMP_pressure;BME280_temperature;BME280_humidity;BME280_pressure;Samples;Min_cycle;Max_cycle;Signal;HPM_P1;HPM_P2
2020/12/30 00:00:31;;;;;;;14.93;5.17;;;;;;;9.45;75.17;100406.78;1758341;81;21558;-66
2020/12/30 00:02:58;;;;;;;13.80;4.58;;;;;;;9.62;75.22;100406.64;1748716;81;21151;-68
2020/12/30 00:05:26;;;;;;;19.23;6.80;;;;;;;9.64;75.71;100415.39;1754367;81;21178;-68
2020/12/30 00:07:54;;;;;;;13.10;4.92;;;;;;;9.73;75.74;100411.38;1766014;81;21119;-66
2020/12/30 00:10:23;;;;;;;12.20;4.22;;;;;;;9.81;75.75;100413.94;1778850;81;21592;-67
2020/12/30 00:12:52;;;;;;;11.80;5.00;;;;;;;9.79;75.79;100415.28;1777750;80;21168;-66
2020/12/30 00:15:20;;;;;;;19.37;6.22;;;;;;;9.79;75.78;100419.22;1773441;80;21179;-66
2020/12/30 00:17:47;;;;;;;13.13;5.17;;;;;;;9.78;75.92;100421.84;1750211;81;21126;-66
2020/12/30 00:20:17;;;;;;;17.35;5.25;;;;;;;9.83;75.79;100421.37;1748119;82;21528;-67
2020/12/30 00:22:45;;;;;;;16.05;5.10;;;;;;;9.87;75.79;100419.14;1753486;81;21135;-68
2020/12/30 00:25:13;;;;;;;15.85;4.75;;;;;;;9.72;76.46;100414.00;1758212;81;21205;-67
2020/12/30 00:27:43;;;;;;;15.60;4.65;;;;;;;9.76;76.69;100411.36;1750073;81;21539;-68
2020/12/30 00:30:17;;;;;;;11.97;4.28;;;;;;;9.81;76.62;100409.99;1748240;81;21171;-66
2020/12/30 00:32:46;;;;;;;18.50;5.50;;;;;;;9.83;76.68;100413.48;1765318;81;21092;-67
2020/12/30 00:35:15;;;;;;;16.77;5.67;;;;;;;9.88;76.52;100413.45;1757041;81;21181;-68
2020/12/30 00:37:43;;;;;;;16.15;4.33;;;;;;;9.92;76.48;100416.03;1772243;81;21120;-68
2020/12/30 00:40:11;;;;;;;17.82;5.15;;;;;;;9.96;76.75;100412.92;1777585;80;21455;-67
2020/12/30 00:42:40;;;;;;;20.55;5.45;;;;;;;9.99;76.81;100415.52;1773280;81;21155;-66
2020/12/30 00:45:09;;;;;;;14.20;5.03;;;;;;;10.06;76.65;100418.53;1755629;81;21160;-68
2020/12/30 00:47:37;;;;;;;13.65;4.60;;;;;;;10.08;76.54;100417.22;1779189;81;21583;-66
2020/12/30 00:50:06;;;;;;;15.88;4.15;;;;;;;10.22;76.01;100409.19;1772224;81;21172;-66
2020/12/30 00:52:34;;;;;;;21.52;5.53;;;;;;;10.14;76.09;100416.27;1757871;81;21127;-66
2020/12/30 00:55:03;;;;;;;14.68;4.58;;;;;;;10.08;76.20;100421.16;1749520;81;21188;-67
2020/12/30 00:57:33;;;;;;;17.50;4.37;;;;;;;10.09;76.13;100419.81;1778440;80;21119;-67
2020/12/30 01:00:01;;;;;;;17.02;5.25;;;;;;;10.08;76.00;100427.28;1762209;80;21147;-68
2020/12/30 01:02:31;;;;;;;11.50;4.30;;;;;;;10.09;75.84;100422.91;1767455;81;21543;-67
2020/12/30 01:05:00;;;;;;;14.35;4.12;;;;;;;10.05;75.66;100429.94;1758231;81;21155;-67
2020/12/30 01:07:27;;;;;;;13.95;4.78;;;;;;;10.01;75.57;100424.27;1748879;81;21569;-67
2020/12/30 01:09:55;;;;;;;18.32;5.80;;;;;;;9.97;75.49;100420.81;1770902;81;21157;-67
2020/12/30 01:12:22;;;;;;;16.25;4.97;;;;;;;9.90;75.66;100427.47;1777865;81;21599;-67
2020/12/30 01:14:49;;;;;;;16.80;4.30;;;;;;;9.85;75.63;100424.00;1779031;81;21163;-68
2020/12/30 01:17:17;;;;;;;18.82;5.17;;;;;;;9.83;75.58;100420.05;1772451;80;21591;-67
2020/12/30 01:19:44;;;;;;;15.10;4.70;;;;;;;9.85;75.59;100427.48;1775666;80;21670;-67
2020/12/30 01:22:13;;;;;;;14.73;5.15;;;;;;;9.84;75.64;100417.00;1779234;80;21157;-68
2020/12/30 01:24:41;;;;;;;13.93;4.62;;;;;;;9.84;75.55;100413.05;1778961;81;21559;-67
2020/12/30 01:27:08;;;;;;;15.32;4.40;;;;;;;9.83;75.40;100409.53;1772330;81;21154;-68
2020/12/30 01:29:36;;;;;;;13.15;3.92;;;;;;;9.84;75.42;100406.02;1764714;80;21144;-66
2020/12/30 01:32:03;;;;;;;15.10;4.55;;;;;;;9.86;75.40;100401.62;1748050;82;21599;-67
2020/12/30 01:34:31;;;;;;;19.55;4.80;;;;;;;9.84;75.33;100404.71;1747997;82;21135;-67
2020/12/30 01:36:59;;;;;;;18.70;5.30;;;;;;;9.78;75.58;100406.08;1770530;81;21139;-68
2020/12/30 01:39:26;;;;;;;17.00;4.40;;;;;;;9.80;75.71;100396.42;1775208;80;21123;-67
2020/12/30 01:41:57;;;;;;;15.70;4.78;;;;;;;9.79;75.93;100397.30;1778772;80;21631;-68
2020/12/30 01:44:25;;;;;;;16.90;4.67;;;;;;;9.81;76.10;100398.16;1767314;81;21112;-67
2020/12/30 01:46:55;;;;;;;15.88;4.28;;;;;;;9.84;75.93;100401.22;1774796;80;21129;-67
2020/12/30 01:49:23;;;;;;;12.13;4.15;;;;;;;9.84;76.09;100401.22;1771008;81;21139;-68
2020/12/30 01:51:52;;;;;;;13.25;4.08;;;;;;;9.88;75.92;100393.28;1778673;80;21729;-68
2020/12/30 01:54:20;;;;;;;16.20;4.78;;;;;;;9.89;75.93;100400.74;1767357;81;21609;-68
2020/12/30 01:56:47;;;;;;;11.03;3.90;;;;;;;9.80;76.20;100395.10;1755072;81;21135;-67
2020/12/30 01:59:16;;;;;;;12.37;4.15;;;;;;;9.77;76.00;100397.33;1779029;80;21269;-67
2020/12/30 02:01:47;;;;;;;10.50;4.83;;;;;;;9.71;75.82;100387.33;1779144;81;21544;-67
2020/12/30 02:04:16;;;;;;;12.75;4.33;;;;;;;9.60;76.08;100389.59;1772212;80;21582;-69
2020/12/30 02:06:43;;;;;;;8.78;3.67;;;;;;;9.53;76.16;100394.00;1754892;81;21175;-67
2020/12/30 02:09:11;;;;;;;8.78;3.60;;;;;;;9.53;76.34;100386.13;1748155;82;21624;-67
2020/12/30 02:11:39;;;;;;;9.20;3.55;;;;;;;9.53;76.50;100393.15;1752579;81;21159;-66
2020/12/30 02:14:13;;;;;;;9.50;3.70;;;;;;;9.50;76.44;100383.52;1751961;81;21128;-67
2020/12/30 02:16:51;;;;;;;9.35;3.72;;;;;;;9.47;76.41;100387.94;1782033;80;21191;-69
2020/12/30 02:19:20;;;;;;;11.88;3.87;;;;;;;9.42;76.53;100384.47;1775255;80;21099;-67
2020/12/30 02:21:48;;;;;;;11.08;3.45;;;;;;;9.42;76.56;100382.73;1786088;80;21127;-67
2020/12/30 02:24:33;;;;;;;9.33;3.90;;;;;;;9.41;76.63;100377.47;1788044;79;21245;-66
2020/12/30 02:27:03;;;;;;;9.45;4.12;;;;;;;9.42;76.73;100378.79;1772933;79;21127;-68
2020/12/30 02:38:02;;;;;;;11.95;4.40;;;;;;;9.54;76.66;100372.56;1834727;77;22175;-66
2020/12/30 02:40:29;;;;;;;10.23;3.83;;;;;;;9.50;76.53;100370.84;1773938;79;21601;-67
2020/12/30 02:42:57;;;;;;;10.90;3.92;;;;;;;9.46;76.55;100377.88;1761903;81;21586;-65
2020/12/30 02:45:24;;;;;;;9.35;3.08;;;;;;;9.38;76.71;100374.44;1748999;81;21162;-65
2020/12/30 02:47:52;;;;;;;6.97;3.50;;;;;;;9.35;76.61;100367.44;1735083;81;21601;-67
2020/12/30 02:50:19;;;;;;;6.20;2.98;;;;;;;9.34;76.41;100377.51;1761845;80;21123;-66
2020/12/30 02:52:47;;;;;;;5.42;2.85;;;;;;;9.30;76.37;100381.50;1761842;81;21612;-65
2020/12/30 02:55:14;;;;;;;12.33;2.85;;;;;;;9.22;76.50;100384.19;1761884;81;21570;-67
2020/12/30 02:57:42;;;;;;;13.20;3.60;;;;;;;9.18;76.51;100385.94;1761669;81;21155;-64
2020/12/30 03:00:09;;;;;;;8.90;3.10;;;;;;;9.17;76.51;100376.77;1761802;80;21601;-67
2020/12/30 03:02:37;;;;;;;9.98;3.05;;;;;;;9.20;76.41;100376.75;1761842;81;21179;-65
2020/12/30 03:05:04;;;;;;;6.37;2.50;;;;;;;9.19;76.36;100381.58;1761365;81;21154;-65
2020/12/30 03:07:32;;;;;;;8.43;2.90;;;;;;;9.17;76.34;100378.94;1761575;81;21139;-67
2020/12/30 03:10:00;;;;;;;8.88;3.20;;;;;;;9.15;76.41;100371.97;1761863;81;21159;-65
2020/12/30 03:12:27;;;;;;;6.50;2.62;;;;;;;9.18;76.44;100378.52;1757154;81;21267;-65
2020/12/30 03:14:55;;;;;;;5.67;2.37;;;;;;;9.17;76.34;100377.62;1731696;83;21142;-67
2020/12/30 03:17:22;;;;;;;6.33;2.22;;;;;;;9.11;76.25;100384.69;1761619;81;21607;-66
2020/12/30 03:19:50;;;;;;;6.25;2.02;;;;;;;9.08;76.09;100391.70;1761949;81;21122;-65
2020/12/30 03:22:18;;;;;;;9.90;2.75;;;;;;;9.07;76.12;100387.75;1761808;81;21178;-65
2020/12/30 03:24:45;;;;;;;8.00;2.67;;;;;;;9.03;76.29;100386.05;1761655;81;21602;-67
2020/12/30 03:27:13;;;;;;;9.93;2.67;;;;;;;9.00;76.36;100391.32;1762050;81;21625;-65
2020/12/30 03:29:40;;;;;;;6.70;3.30;;;;;;;8.97;76.54;100383.46;1761842;81;21575;-67
2020/12/30 03:32:08;;;;;;;12.03;2.98;;;;;;;8.98;76.40;100382.13;1745327;81;21610;-67
2020/12/30 03:34:35;;;;;;;7.40;3.17;;;;;;;8.96;76.55;100390.45;1749053;80;21614;-67
2020/12/30 03:37:03;;;;;;;9.20;3.02;;;;;;;8.97;76.66;100387.40;1755573;81;21273;-66
2020/12/30 03:39:31;;;;;;;6.17;2.95;;;;;;;8.96;76.83;100390.45;1749195;81;21551;-67
2020/12/30 03:41:58;;;;;;;8.85;3.33;;;;;;;9.01;76.80;100387.36;1739083;81;21112;-65
2020/12/30 03:44:26;;;;;;;11.65;3.65;;;;;;;9.04;76.81;100384.72;1745169;82;21534;-67
2020/12/30 03:46:54;;;;;;;18.40;4.20;;;;;;;9.06;76.84;100380.75;1748679;81;21171;-65
2020/12/30 03:49:21;;;;;;;5.33;3.30;;;;;;;9.14;77.00;100378.96;1748378;82;21161;-66
2020/12/30 03:51:49;;;;;;;9.63;3.60;;;;;;;9.14;77.10;100376.80;1726261;82;21149;-67
2020/12/30 03:54:16;;;;;;;10.60;3.55;;;;;;;9.14;77.07;100375.48;1712544;83;21148;-67
2020/12/30 03:56:44;;;;;;;10.38;3.30;;;;;;;9.14;77.12;100375.02;1747684;82;21184;-65
2020/12/30 03:59:11;;;;;;;10.75;3.15;;;;;;;9.21;76.92;100372.79;1748361;82;21618;-67
2020/12/30 04:01:39;;;;;;;8.83;3.52;;;;;;;9.22;76.98;100371.05;1734324;82;21213;-66
2020/12/30 04:04:06;;;;;;;20.10;7.20;;;;;;;9.26;76.99;100377.14;1721298;82;21272;-67
2020/12/30 04:06:34;;;;;;;15.15;8.70;;;;;;;9.24;77.16;100371.91;1748093;82;21140;-67
2020/12/30 04:09:01;;;;;;;14.20;5.90;;;;;;;9.25;77.10;100373.66;1741432;82;21586;-67
2020/12/30 04:11:29;;;;;;;12.63;5.03;;;;;;;9.29;77.21;100387.17;1740582;82;21359;-66
2020/12/30 04:13:57;;;;;;;27.17;5.97;;;;;;;9.33;77.18;100382.33;1748304;82;21164;-66
2020/12/30 04:16:25;;;;;;;9.03;4.85;;;;;;;9.35;77.28;100381.88;1748103;81;21665;-66
2020/12/30 04:18:52;;;;;;;11.38;4.95;;;;;;;9.40;77.27;100384.92;1747939;81;21163;-66
2020/12/30 04:21:21;;;;;;;9.15;4.83;;;;;;;9.41;77.38;100377.47;1748042;80;21184;-66
2020/12/30 04:23:54;;;;;;;15.35;8.03;;;;;;;9.48;77.27;100385.31;1724719;82;21139;-67
2020/12/30 04:26:21;;;;;;;20.52;10.23;;;;;;;9.49;77.25;100393.59;1664590;85;21576;-67
2020/12/30 04:28:50;;;;;;;19.67;9.78;;;;;;;9.50;77.26;100389.23;1733987;82;21123;-69
2020/12/30 04:31:18;;;;;;;30.35;13.18;;;;;;;9.53;77.24;100386.13;1748122;81;21135;-68
2020/12/30 04:33:46;;;;;;;16.73;10.43;;;;;;;9.57;77.22;100396.61;1748122;82;21174;-67
2020/12/30 04:36:14;;;;;;;18.42;9.25;;;;;;;9.62;77.11;100393.51;1748119;81;21183;-69
2020/12/30 04:38:41;;;;;;;15.80;7.75;;;;;;;9.63;77.06;100393.94;1739454;82;21151;-66
2020/12/30 04:41:11;;;;;;;15.72;6.12;;;;;;;9.59;77.22;100403.61;1733544;82;21962;-68
2020/12/30 04:43:42;;;;;;;10.60;5.23;;;;;;;9.58;77.36;100402.30;1748653;82;21112;-66
2020/12/30 04:46:11;;;;;;;;;;;;;;;9.55;77.49;100409.77;1750914;82;21734;-67
2020/12/30 04:48:40;;;;;;;15.85;6.35;;;;;;;9.59;77.42;100416.75;1741207;82;20139;-68
2020/12/30 04:51:09;;;;;;;17.02;6.58;;;;;;;9.62;77.38;100413.22;1748251;82;21524;-65
2020/12/30 04:53:37;;;;;;;16.23;8.60;;;;;;;9.61;77.43;100419.35;1737930;82;21195;-69
2020/12/30 04:56:05;;;;;;;19.30;9.93;;;;;;;9.60;77.41;100426.38;1748496;82;21586;-69
2020/12/30 04:58:32;;;;;;;16.42;7.90;;;;;;;9.56;77.45;100418.09;1710848;83;21147;-65
2020/12/30 05:01:00;;;;;;;18.25;6.65;;;;;;;9.58;77.45;100421.58;1747907;82;21505;-65
2020/12/30 05:03:30;;;;;;;17.65;6.80;;;;;;;9.62;77.42;100426.36;1748179;82;21305;-69
2020/12/30 05:06:03;;;;;;;18.12;6.15;;;;;;;9.62;77.46;100425.93;1748279;81;21686;-67
2020/12/30 05:08:34;;;;;;;15.98;6.55;;;;;;;9.61;77.61;100421.56;1737952;82;21587;-67
2020/12/30 05:11:02;;;;;;;18.32;6.87;;;;;;;9.75;77.23;100416.61;1748371;82;21571;-68
2020/12/30 05:13:29;;;;;;;25.50;7.53;;;;;;;9.74;77.33;100422.75;1748358;81;21179;-66
2020/12/30 05:16:00;;;;;;;21.10;6.85;;;;;;;9.77;77.20;100423.62;1747427;82;21715;-68
2020/12/30 05:18:27;;;;;;;24.15;7.70;;;;;;;9.76;77.26;100422.30;1744878;82;21582;-67
2020/12/30 05:20:55;;;;;;;13.95;5.50;;;;;;;9.76;77.43;100421.88;1713812;82;21594;-69
2020/12/30 05:23:23;;;;;;;17.82;6.05;;;;;;;9.78;77.24;100424.05;1748082;82;21081;-65
2020/12/30 05:25:50;;;;;;;21.57;5.47;;;;;;;9.78;77.32;100424.47;1747844;81;21527;-69
2020/12/30 05:28:19;;;;;;;21.62;6.20;;;;;;;9.80;77.41;100428.85;1714188;82;21123;-66
2020/12/30 05:30:46;;;;;;;19.15;6.60;;;;;;;9.84;77.53;100427.52;1713513;82;21563;-68
2020/12/30 05:33:14;;;;;;;16.00;6.05;;;;;;;9.91;77.65;100420.00;1713603;82;21555;-67
2020/12/30 05:35:42;;;;;;;19.23;7.78;;;;;;;9.97;77.81;100420.81;1747304;81;21738;-69
2020/12/30 05:38:09;;;;;;;20.30;8.45;;;;;;;10.04;77.79;100428.65;1756886;81;21175;-68
2020/12/30 05:40:37;;;;;;;27.30;10.08;;;;;;;10.08;77.84;100419.39;1761409;81;21151;-68
2020/12/30 05:43:12;;;;;;;33.48;12.40;;;;;;;10.09;77.85;100430.34;1761322;81;21555;-68
2020/12/30 05:45:48;;;;;;;23.77;11.80;;;;;;;10.08;77.99;100427.28;1761158;81;21318;-68
2020/12/30 05:48:17;;;;;;;26.70;10.35;;;;;;;10.09;77.93;100424.22;1761521;81;21127;-69
2020/12/30 05:50:53;;;;;;;19.15;9.05;;;;;;;10.10;78.15;100424.19;1740804;81;21127;-67
2020/12/30 05:53:21;;;;;;;22.42;10.53;;;;;;;10.15;78.07;100434.69;1761700;81;21147;-67
2020/12/30 05:55:54;;;;;;;26.95;10.72;;;;;;;10.15;78.22;100435.11;1761090;81;21168;-66
2020/12/30 05:58:21;;;;;;;23.22;10.63;;;;;;;10.16;78.24;100434.23;1759405;81;21178;-67
2020/12/30 06:00:49;;;;;;;22.35;10.32;;;;;;;10.19;78.16;100431.11;1761494;81;21127;-67
2020/12/30 06:03:22;;;;;;;25.48;10.93;;;;;;;10.24;77.82;100435.03;1761370;81;21622;-68
2020/12/30 06:05:49;;;;;;;23.92;9.20;;;;;;;10.23;77.71;100434.14;1760786;81;21111;-68
2020/12/30 06:08:17;;;;;;;19.20;9.38;;;;;;;10.23;77.66;100434.60;1759542;81;21309;-68
2020/12/30 06:10:44;;;;;;;18.60;7.10;;;;;;;10.24;77.63;100442.92;1733931;81;21131;-68
2020/12/30 06:13:15;;;;;;;17.35;7.03;;;;;;;10.23;77.54;100443.34;1731630;81;21119;-68
2020/12/30 06:15:42;;;;;;;23.40;7.17;;;;;;;10.22;77.55;100440.29;1748947;81;21183;-68
2020/12/30 06:18:10;;;;;;;17.80;6.17;;;;;;;10.22;77.56;100441.60;1713841;81;21111;-68
2020/12/30 06:20:40;;;;;;;23.18;7.12;;;;;;;10.21;77.70;100439.86;1749100;80;21184;-68
2020/12/30 06:23:11;;;;;;;20.27;7.17;;;;;;;10.24;77.77;100435.89;1744228;81;21139;-68
2020/12/30 06:25:41;;;;;;;18.80;6.67;;;;;;;10.35;77.51;100430.54;1749034;81;21166;-68
2020/12/30 06:28:19;;;;;;;20.75;7.25;;;;;;;10.45;77.29;100427.39;1750718;81;21566;-68
2020/12/30 06:30:49;;;;;;;19.12;7.72;;;;;;;10.37;77.71;100430.51;1738668;81;21170;-68
2020/12/30 06:33:19;;;;;;;20.30;7.08;;;;;;;10.44;77.62;100432.22;1755041;81;21538;-68
2020/12/30 06:35:47;;;;;;;23.50;6.85;;;;;;;10.63;76.99;100432.00;1744777;81;21576;-68
2020/12/30 06:38:26;;;;;;;14.87;6.17;;;;;;;10.67;76.90;100441.60;1721971;83;21165;-68
2020/12/30 06:40:58;;;;;;;22.13;6.67;;;;;;;10.67;76.97;100436.34;1756024;80;21266;-68
2020/12/30 06:43:46;;;;;;;16.85;6.55;;;;;;;10.78;76.70;100444.98;1754102;81;21166;-70
2020/12/30 06:46:26;;;;;;;25.00;7.65;;;;;;;10.84;76.52;100448.87;1750261;81;21882;-67
2020/12/30 06:49:01;;;;;;;16.93;6.87;;;;;;;10.59;77.41;100446.97;1702685;83;21118;-69
2020/12/30 06:51:38;;;;;;;22.40;7.60;;;;;;;10.49;77.98;100438.31;1748446;82;21249;-67
2020/12/30 06:54:06;;;;;;;26.45;7.22;;;;;;;10.52;78.06;100447.91;1755729;81;21182;-66
2020/12/30 06:56:43;;;;;;;17.70;7.00;;;;;;;10.57;78.00;100442.16;1755998;80;21200;-67
2020/12/30 06:59:28;;;;;;;21.20;8.80;;;;;;;10.60;77.92;100434.23;1756025;82;21159;-69
2020/12/30 07:02:04;;;;;;;18.92;7.12;;;;;;;10.64;78.01;100440.32;1749593;82;21150;-67
2020/12/30 07:04:36;;;;;;;18.25;6.95;;;;;;;10.70;77.96;100435.88;1726306;82;21163;-66
2020/12/30 07:07:20;;;;;;;22.60;8.10;;;;;;;10.68;78.31;100440.28;1737959;82;21634;-69
2020/12/30 07:09:48;;;;;;;17.80;7.37;;;;;;;10.74;78.43;100435.84;1755372;82;21171;-70
2020/12/30 07:12:15;;;;;;;25.88;13.58;;;;;;;10.80;78.41;100435.31;1755636;82;21119;-69
2020/12/30 07:14:43;;;;;;;20.45;10.58;;;;;;;10.85;78.58;100440.51;1756284;82;21289;-66
2020/12/30 07:17:11;;;;;;;23.10;8.35;;;;;;;10.93;78.63;100442.60;1743607;82;21150;-69
2020/12/30 07:19:41;;;;;;;22.75;8.20;;;;;;;10.97;78.73;100448.72;1740227;82;21261;-70
2020/12/30 07:22:14;;;;;;;23.90;7.90;;;;;;;11.01;78.81;100443.38;1756184;82;21292;-67
2020/12/30 07:24:49;;;;;;;21.12;8.33;;;;;;;11.09;78.71;100438.00;1756429;82;21128;-67
2020/12/30 07:27:16;;;;;;;18.27;7.17;;;;;;;11.20;78.36;100433.03;1756158;82;21467;-69
2020/12/30 07:29:46;;;;;;;23.30;8.90;;;;;;;11.24;78.39;100434.31;1745376;82;21095;-65
2020/12/30 07:32:15;;;;;;;24.60;8.53;;;;;;;11.26;78.45;100434.27;1739975;82;21581;-66
2020/12/30 07:34:46;;;;;;;25.10;8.58;;;;;;;11.34;78.74;100438.99;1726384;83;21154;-66
2020/12/30 07:37:14;;;;;;;23.50;8.35;;;;;;;11.47;78.44;100440.99;1731746;81;21282;-67
2020/12/30 07:39:45;;;;;;;22.82;8.23;;;;;;;11.51;78.55;100442.69;1725768;83;21189;-67
2020/12/30 07:42:19;;;;;;;25.97;8.20;;;;;;;11.57;78.67;100441.28;1730515;82;21554;-73
2020/12/30 07:44:52;;;;;;;25.85;8.05;;;;;;;11.71;78.64;100438.85;1731323;82;21281;-67
2020/12/30 07:47:21;;;;;;;16.17;7.85;;;;;;;11.81;78.48;100439.59;1756509;81;21526;-73
2020/12/30 07:49:49;;;;;;;22.47;7.87;;;;;;;11.89;78.06;100439.03;1756236;82;21590;-73
2020/12/30 07:52:17;;;;;;;23.12;8.05;;;;;;;11.89;77.95;100436.39;1738609;82;21174;-74
2020/12/30 07:54:45;;;;;;;19.70;8.13;;;;;;;11.93;77.72;100438.52;1726192;83;21187;-66
2020/12/30 07:57:13;;;;;;;19.62;8.43;;;;;;;11.95;77.60;100445.95;1740739;82;21175;-74
2020/12/30 07:59:44;;;;;;;18.25;7.87;;;;;;;11.96;77.56;100449.02;1726163;83;21131;-66
2020/12/30 08:02:12;;;;;;;;;;;;;;;12.02;77.33;100443.21;1728610;82;21273;-66
2020/12/30 08:04:41;;;;;;;18.87;7.50;;;;;;;11.94;77.74;100441.11;1735555;82;20259;-73
2020/12/30 08:07:14;;;;;;;21.52;7.95;;;;;;;12.40;76.12;100435.94;1755855;82;21151;-72
2020/12/30 08:09:45;;;;;;;20.17;8.33;;;;;;;12.09;77.06;100435.19;1746073;82;21155;-73
2020/12/30 08:12:14;;;;;;;22.50;7.75;;;;;;;12.07;77.10;100442.27;1754346;82;21645;-73
2020/12/30 08:14:44;;;;;;;23.10;7.72;;;;;;;12.07;77.24;100448.86;1756031;82;21118;-73
2020/12/30 08:17:13;;;;;;;17.17;7.65;;;;;;;12.07;77.41;100448.42;1756336;82;21139;-74
2020/12/30 08:19:43;;;;;;;26.15;7.83;;;;;;;12.30;77.01;100441.84;1750572;82;21574;-72
2020/12/30 08:22:25;;;;;;;18.75;7.83;;;;;;;13.11;74.60;100423.95;1754567;82;21127;-66
2020/12/30 08:24:59;;;;;;;25.43;8.13;;;;;;;13.11;74.60;100423.95;1733467;81;21584;-67
2020/12/30 08:27:29;;;;;;;17.05;7.33;;;;;;;12.51;76.08;100422.56;1726769;82;21158;-67
2020/12/30 08:30:01;;;;;;;18.75;8.63;;;;;;;12.47;76.25;100429.22;1724631;82;21366;-74
2020/12/30 08:32:55;;;;;;;15.32;8.10;;;;;;;12.26;77.03;100440.16;1726614;83;21143;-72
2020/12/30 08:35:31;;;;;;;22.00;7.92;;;;;;;12.20;77.29;100441.16;1741037;81;21147;-66
2020/12/30 08:38:15;;;;;;;29.90;8.55;;;;;;;12.22;77.42;100435.41;1756843;81;21171;-66
2020/12/30 08:40:43;;;;;;;22.58;8.63;;;;;;;12.26;77.59;100442.37;1738716;81;21615;-67
2020/12/30 08:43:37;;;;;;;23.35;8.40;;;;;;;12.32;77.55;100440.94;1729857;82;21567;-70
2020/12/30 08:46:08;;;;;;;30.32;10.38;;;;;;;12.37;77.40;100435.56;1722029;83;21622;-67
2020/12/30 08:48:49;;;;;;;15.68;7.92;;;;;;;12.39;77.50;100430.24;1731830;82;21131;-71
2020/12/30 08:51:33;;;;;;;19.15;7.95;;;;;;;12.28;77.74;100433.98;1739037;82;21301;-66
2020/12/30 08:54:01;;;;;;;21.17;8.88;;;;;;;12.40;77.57;100438.15;1739121;82;21112;-65
2020/12/30 08:56:31;;;;;;;14.47;7.20;;;;;;;12.43;77.60;100438.52;1734062;81;21588;-65
2020/12/30 08:59:00;;;;;;;23.27;9.48;;;;;;;12.40;77.82;100437.27;1744014;82;21135;-66
2020/12/30 09:01:30;;;;;;;23.10;9.25;;;;;;;12.46;77.84;100431.88;1746084;82;21141;-72
2020/12/30 09:04:12;;;;;;;21.50;9.08;;;;;;;12.53;77.96;100424.72;1746552;82;21187;-66
2020/12/30 09:06:41;;;;;;;27.13;10.38;;;;;;;12.61;78.03;100423.66;1737738;82;21190;-72
2020/12/30 09:09:11;;;;;;;20.50;8.73;;;;;;;12.73;78.13;100430.45;1739258;82;21121;-72
2020/12/30 09:11:48;;;;;;;28.27;10.47;;;;;;;12.87;78.14;100425.34;1741425;82;21181;-71
2020/12/30 09:14:21;;;;;;;21.30;10.50;;;;;;;12.96;77.76;100424.27;1737501;82;21365;-72
2020/12/30 09:19:38;;;;;;;33.42;11.63;;;;;;;13.21;77.66;100417.56;1807784;77;22182;-71
2020/12/30 09:22:09;;;;;;;22.58;9.75;;;;;;;13.26;77.56;100416.56;1761822;81;21629;-65
2020/12/30 09:24:40;;;;;;;;;;;;;;;13.27;77.35;100413.90;1764189;81;21605;-65
2020/12/30 09:27:20;;;;;;;23.32;11.63;;;;;;;13.33;77.14;100409.80;1788203;80;20153;-72
2020/12/30 09:30:12;;;;;;;35.43;19.87;;;;;;;13.34;77.14;100404.92;1792366;80;21092;-66
2020/12/30 09:32:41;;;;;;;27.87;14.35;;;;;;;13.34;76.99;100402.28;1731853;81;21126;-66
2020/12/30 09:35:11;;;;;;;39.03;19.90;;;;;;;13.38;76.88;100405.71;1728469;83;21299;-73
2020/12/30 09:37:39;;;;;;;24.80;13.80;;;;;;;13.41;76.90;100401.70;1728897;81;21134;-67
2020/12/30 09:40:14;;;;;;;33.42;11.38;;;;;;;13.44;76.66;100394.17;1743294;82;21167;-67
2020/12/30 09:42:43;;;;;;;21.77;13.95;;;;;;;13.53;76.41;100400.53;1728571;83;21174;-67
2020/12/30 09:45:13;;;;;;;30.80;13.25;;;;;;;13.46;76.57;100402.47;1738516;82;21225;-67
2020/12/30 09:47:40;;;;;;;22.02;10.90;;;;;;;13.46;76.51;100393.22;1722396;82;21685;-66
2020/12/30 09:50:14;;;;;;;23.50;10.03;;;;;;;13.48;76.32;100387.44;1731984;83;21174;-66
2020/12/30 09:52:45;;;;;;;20.32;9.18;;;;;;;13.50;76.15;100385.63;1734487;83;21200;-68
2020/12/30 09:55:13;;;;;;;20.75;8.90;;;;;;;14.50;73.39;100375.09;1749274;81;21162;-68
2020/12/30 09:57:42;;;;;;;22.52;9.28;;;;;;;13.78;75.67;100389.37;1714716;84;21828;-67
2020/12/30 10:00:10;;;;;;;25.45;8.65;;;;;;;13.74;75.91;100385.91;1714642;84;21182;-68
2020/12/30 10:02:37;;;;;;;17.25;9.33;;;;;;;13.80;75.70;100376.97;1728949;82;21131;-69
2020/12/30 10:05:05;;;;;;;24.55;10.43;;;;;;;13.85;75.90;100366.25;1720474;82;21608;-68
2020/12/30 10:07:34;;;;;;;22.95;12.10;;;;;;;13.85;75.92;100374.19;1714274;84;21175;-68
2020/12/30 10:10:02;;;;;;;28.70;13.95;;;;;;;13.88;75.68;100363.53;1714915;84;21175;-68
2020/12/30 10:12:30;;;;;;;23.95;10.18;;;;;;;13.90;75.53;100355.98;1731227;82;21139;-68
2020/12/30 10:14:58;;;;;;;22.73;8.70;;;;;;;14.02;75.43;100347.28;1729891;82;21212;-68
2020/12/30 10:17:25;;;;;;;16.60;8.28;;;;;;;14.02;75.14;100336.70;1726490;82;21819;-68
2020/12/30 10:19:53;;;;;;;22.35;8.93;;;;;;;14.00;75.04;100328.81;1718395;83;21724;-68
2020/12/30 10:22:20;;;;;;;17.55;8.13;;;;;;;14.03;75.01;100327.84;1731409;82;21523;-68
2020/12/30 10:24:48;;;;;;;18.32;7.78;;;;;;;14.10;74.76;100331.63;1720533;82;21617;-67
2020/12/30 10:27:16;;;;;;;19.67;8.95;;;;;;;14.02;74.54;100327.44;1787842;80;21151;-68
2020/12/30 10:29:44;;;;;;;21.95;8.95;;;;;;;14.11;74.66;100336.02;1778600;80;21108;-69
2020/12/30 10:32:12;;;;;;;22.73;8.98;;;;;;;14.04;74.56;100326.94;1769176;80;21159;-67
2020/12/30 10:34:40;;;;;;;18.17;7.97;;;;;;;14.09;74.24;100329.89;1756173;82;21139;-69
2020/12/30 10:37:07;;;;;;;21.87;9.13;;;;;;;14.09;74.34;100326.36;1756544;80;21258;-68
2020/12/30 10:39:36;;;;;;;18.48;9.20;;;;;;;14.06;73.91;100333.06;1779983;80;21100;-73
2020/12/30 10:42:04;;;;;;;20.95;9.08;;;;;;;14.06;74.29;100329.97;1773917;80;21558;-68
2020/12/30 10:44:32;;;;;;;23.45;11.50;;;;;;;14.06;74.07;100323.36;1787392;80;21143;-68
2020/12/30 10:47:00;;;;;;;39.80;22.75;;;;;;;14.08;73.96;100325.52;1787226;80;21587;-68
2020/12/30 10:49:27;;;;;;;26.97;17.80;;;;;;;14.11;74.08;100319.25;1777078;79;21146;-68
2020/12/30 10:51:56;;;;;;;34.70;17.77;;;;;;;14.19;74.18;100319.02;1766146;80;21146;-69
2020/12/30 10:54:23;;;;;;;36.15;17.60;;;;;;;14.23;73.86;100318.91;1787196;80;21603;-69
2020/12/30 10:56:53;;;;;;;28.30;13.72;;;;;;;14.27;73.68;100315.27;1787139;80;21452;-69
2020/12/30 10:59:21;;;;;;;23.30;12.00;;;;;;;14.31;73.28;100314.71;1767151;80;21567;-68
2020/12/30 11:01:51;;;;;;;257.30;154.87;;;;;;;14.28;73.55;100312.15;1785177;80;21107;-69
2020/12/30 11:04:19;;;;;;;39.95;24.35;;;;;;;14.36;73.17;100310.59;1777868;80;21292;-70
2020/12/30 11:06:48;;;;;;;132.03;89.47;;;;;;;14.32;73.14;100310.30;1769480;80;21197;-66
2020/12/30 11:09:16;;;;;;;24.00;12.40;;;;;;;14.30;73.14;100304.18;1778289;80;21593;-67
2020/12/30 11:11:43;;;;;;;26.50;9.30;;;;;;;14.43;72.83;100297.59;1782448;80;21642;-74
2020/12/30 11:14:11;;;;;;;19.35;9.00;;;;;;;14.50;72.68;100304.92;1756593;81;21313;-67
2020/12/30 11:16:39;;;;;;;19.00;7.20;;;;;;;14.51;72.66;100307.50;1764458;80;21538;-75
2020/12/30 11:19:06;;;;;;;18.00;7.87;;;;;;;14.53;72.52;100309.65;1768008;80;21554;-74
2020/12/30 11:21:34;;;;;;;16.62;7.92;;;;;;;14.53;72.54;100305.68;1791921;79;21601;-74
2020/12/30 11:24:01;;;;;;;17.82;8.73;;;;;;;14.46;72.63;100312.06;1792776;80;21602;-68
2020/12/30 11:26:30;;;;;;;25.08;14.25;;;;;;;14.42;72.22;100308.66;1774882;80;21188;-67
2020/12/30 11:28:57;;;;;;;28.30;20.52;;;;;;;14.36;72.25;100306.18;1786536;80;21554;-67
2020/12/30 11:31:25;;;;;;;21.00;10.85;;;;;;;14.37;72.28;100297.77;1767728;80;21607;-67
2020/12/30 11:33:52;;;;;;;24.27;11.43;;;;;;;14.33;72.20;100294.83;1791719;79;21313;-72
2020/12/30 11:36:27;;;;;;;23.42;9.35;;;;;;;14.28;72.27;100290.97;1778662;80;21131;-76
2020/12/30 11:38:55;;;;;;;19.70;8.63;;;;;;;14.27;72.46;100294.53;1772021;80;21614;-69
2020/12/30 11:41:23;;;;;;;23.12;10.75;;;;;;;14.19;72.08;100300.50;1786612;80;21666;-69
2020/12/30 11:43:50;;;;;;;26.20;10.63;;;;;;;14.16;72.25;100294.84;1789543;80;21610;-69